createdAt,value
2019-01-20T00:01:22.923Z,4.10
2019-01-20T00:03:50.319Z,4.10
2019-01-20T00:06:19.023Z,4.10
2019-01-20T00:08:46.435Z,4.10
2019-01-20T00:16:10.750Z,4.00
2019-01-20T00:18:38.258Z,4.00
2019-01-20T00:23:32.936Z,4.00
2019-01-20T00:26:00.284Z,3.90
2019-01-20T00:30:55.719Z,3.90
2019-01-20T00:33:23.221Z,3.80
2019-01-20T00:35:50.744Z,3.90
2019-01-20T00:38:18.195Z,3.80
2019-01-20T00:40:45.552Z,3.90
2019-01-20T00:43:13.064Z,3.90
2019-01-20T00:45:40.480Z,3.90
2019-01-20T00:48:08.100Z,3.80
2019-01-20T00:50:35.527Z,3.80
2019-01-20T00:53:03.372Z,3.90
2019-01-20T00:55:30.834Z,3.90
2019-01-20T00:57:58.141Z,3.90
2019-01-20T01:02:54.257Z,3.80
2019-01-20T01:05:22.017Z,3.80
2019-01-20T01:07:50.327Z,3.80
2019-01-20T01:10:18.007Z,3.50
2019-01-20T01:12:47.646Z,3.80
2019-01-20T01:15:15.140Z,3.70
2019-01-20T01:17:42.617Z,3.70
2019-01-20T01:20:11.723Z,3.70
2019-01-20T01:25:08.590Z,3.70
2019-01-20T01:27:35.978Z,3.60
2019-01-20T01:30:05.951Z,3.60
2019-01-20T01:32:41.278Z,3.60
2019-01-20T01:35:08.979Z,3.60
2019-01-20T01:37:36.412Z,3.60
2019-01-20T01:42:31.899Z,3.60
2019-01-20T01:44:59.351Z,3.60
2019-01-20T01:54:49.111Z,3.30
2019-01-20T01:59:43.929Z,3.50
2019-01-20T02:02:11.413Z,3.50
2019-01-20T02:04:38.886Z,3.50
2019-01-20T02:07:06.289Z,3.50
2019-01-20T02:09:33.743Z,3.40
2019-01-20T02:12:01.358Z,3.40
2019-01-20T02:16:56.123Z,3.40
2019-01-20T02:19:23.499Z,3.40
2019-01-20T02:21:50.931Z,3.40
2019-01-20T02:26:45.744Z,3.40
2019-01-20T02:29:13.201Z,3.40
2019-01-20T02:31:40.656Z,3.40
2019-01-20T02:34:08.091Z,3.40
2019-01-20T02:36:35.599Z,3.30
2019-01-20T02:41:32.092Z,3.30
2019-01-20T02:43:59.481Z,3.40
2019-01-20T02:46:27.039Z,3.40
2019-01-20T02:48:54.416Z,3.30
2019-01-20T02:51:21.857Z,3.30
2019-01-20T02:53:49.226Z,3.30
2019-01-20T02:56:16.584Z,3.30
2019-01-20T02:58:43.921Z,3.30
2019-01-20T03:01:11.332Z,3.30
2019-01-20T03:03:38.751Z,3.30
2019-01-20T03:06:06.170Z,3.20
2019-01-20T03:08:33.682Z,3.30
2019-01-20T03:11:01.112Z,3.30
2019-01-20T03:13:28.547Z,3.30
2019-01-20T03:15:55.954Z,3.30
2019-01-20T03:18:23.504Z,3.30
2019-01-20T03:20:50.971Z,3.20
2019-01-20T03:25:46.118Z,3.20
2019-01-20T03:28:13.549Z,3.20
2019-01-20T03:30:41.089Z,3.20
2019-01-20T03:35:35.987Z,3.20
2019-01-20T03:38:03.339Z,3.10
2019-01-20T03:40:30.770Z,3.10
2019-01-20T03:45:40.587Z,3.10
2019-01-20T03:48:08.068Z,3.20
2019-01-20T03:50:35.581Z,3.10
2019-01-20T03:53:03.083Z,3.10
2019-01-20T03:57:57.816Z,3.20
2019-01-20T04:00:25.434Z,3.10
2019-01-20T04:02:55.413Z,3.20
2019-01-20T04:05:22.828Z,3.20
2019-01-20T04:07:50.129Z,3.10
2019-01-20T04:12:45.053Z,3.10
2019-01-20T04:15:13.064Z,3.10
2019-01-20T04:20:07.964Z,3.10
2019-01-20T04:22:35.482Z,3.10
2019-01-20T04:25:03.932Z,3.10
2019-01-20T04:29:58.725Z,3.00
2019-01-20T04:32:28.119Z,3.00
2019-01-20T04:34:55.500Z,3.00
2019-01-20T04:37:22.833Z,3.00
2019-01-20T04:42:17.580Z,3.10
2019-01-20T04:44:45.057Z,3.00
2019-01-20T04:47:12.470Z,3.00
2019-01-20T04:49:39.994Z,3.10
2019-01-20T04:52:07.385Z,3.10
2019-01-20T04:54:34.783Z,3.10
2019-01-20T04:57:02.219Z,3.10
2019-01-20T04:59:29.693Z,3.00
2019-01-20T05:09:19.597Z,3.00
2019-01-20T05:11:47.089Z,2.90
2019-01-20T05:14:14.422Z,3.00
2019-01-20T05:19:09.159Z,3.00
2019-01-20T05:21:36.487Z,2.90
2019-01-20T05:26:31.014Z,2.90
2019-01-20T05:28:58.427Z,2.70
2019-01-20T05:31:25.747Z,3.00
2019-01-20T05:36:20.346Z,3.00
2019-01-20T05:38:47.662Z,3.00
2019-01-20T05:41:14.929Z,3.00
2019-01-20T05:43:42.278Z,3.00
2019-01-20T05:46:09.626Z,2.90
2019-01-20T05:48:36.949Z,3.00
2019-01-20T05:51:04.288Z,2.90
2019-01-20T05:53:31.575Z,2.90
2019-01-20T05:58:26.222Z,2.90
2019-01-20T06:00:53.633Z,2.90
2019-01-20T06:05:48.452Z,2.90
2019-01-20T06:08:15.853Z,2.90
2019-01-20T06:10:43.140Z,2.90
2019-01-20T06:13:10.429Z,2.90
2019-01-20T06:15:37.736Z,2.90
2019-01-20T06:18:05.419Z,2.90
2019-01-20T06:20:32.887Z,2.90
2019-01-20T06:23:00.186Z,2.90
2019-01-20T06:27:54.736Z,2.90
2019-01-20T06:30:27.538Z,2.90
2019-01-20T06:32:54.950Z,2.90
2019-01-20T06:37:49.622Z,2.90
2019-01-20T06:42:44.378Z,2.80
2019-01-20T06:45:11.829Z,2.80
2019-01-20T06:47:39.284Z,2.80
2019-01-20T06:50:08.894Z,2.80
2019-01-20T06:57:31.480Z,2.80
2019-01-20T06:59:58.940Z,2.80
2019-01-20T07:02:26.420Z,2.80
2019-01-20T07:04:53.837Z,2.80
2019-01-20T07:07:21.215Z,2.80
2019-01-20T07:09:48.774Z,2.80
2019-01-20T07:12:16.241Z,2.80
2019-01-20T07:14:43.652Z,2.80
2019-01-20T07:17:11.164Z,2.80
2019-01-20T07:22:05.890Z,2.80
2019-01-20T07:24:33.399Z,2.90
2019-01-20T07:27:00.786Z,2.90
2019-01-20T07:29:28.133Z,2.90
2019-01-20T07:31:55.758Z,3.00
2019-01-20T07:34:23.133Z,3.10
2019-01-20T07:39:24.523Z,3.20
2019-01-20T07:41:52.123Z,3.20
2019-01-20T07:47:25.722Z,3.30
2019-01-20T07:49:53.144Z,3.30
2019-01-20T07:52:20.899Z,3.40
2019-01-20T07:54:48.669Z,3.40
2019-01-20T07:57:15.939Z,3.50
2019-01-20T07:59:43.459Z,3.50
2019-01-20T08:02:10.859Z,3.60
2019-01-20T08:04:38.341Z,3.60
2019-01-20T08:07:05.972Z,3.60
2019-01-20T08:09:33.470Z,3.70
2019-01-20T08:12:01.240Z,3.70
2019-01-20T08:14:28.874Z,3.80
2019-01-20T08:16:56.325Z,3.80
2019-01-20T08:19:23.891Z,3.90
2019-01-20T08:21:51.331Z,4.00
2019-01-20T08:24:18.887Z,4.00
2019-01-20T08:26:48.019Z,4.10
2019-01-20T08:29:15.725Z,4.10
2019-01-20T08:31:43.248Z,4.20
2019-01-20T08:36:39.458Z,4.40
2019-01-20T08:39:07.446Z,4.50
2019-01-20T08:41:34.967Z,4.60
2019-01-20T08:44:05.559Z,4.60
2019-01-20T08:46:58.141Z,4.70
2019-01-20T08:49:25.612Z,4.80
2019-01-20T08:51:53.187Z,4.80
2019-01-20T08:54:21.872Z,4.90
2019-01-20T08:56:51.432Z,5.10
2019-01-20T08:59:19.355Z,5.10
2019-01-20T09:01:46.814Z,5.20
2019-01-20T09:04:14.263Z,5.30
2019-01-20T09:06:44.128Z,5.40
2019-01-20T09:09:11.838Z,5.50
2019-01-20T09:16:35.540Z,5.80
2019-01-20T09:19:03.046Z,5.90
2019-01-20T09:21:30.560Z,5.90
2019-01-20T09:24:00.048Z,6.10
2019-01-20T09:28:55.144Z,6.20
2019-01-20T09:31:22.924Z,6.40
2019-01-20T09:33:50.878Z,6.50
2019-01-20T09:36:19.118Z,6.70
2019-01-20T09:38:47.293Z,6.70
2019-01-20T09:41:15.064Z,6.80
2019-01-20T09:43:47.085Z,7.00
2019-01-20T09:46:12.678Z,7.10
2019-01-20T09:48:45.655Z,7.20
2019-01-20T09:51:13.310Z,7.30
2019-01-20T09:53:40.855Z,7.50
2019-01-20T09:56:08.814Z,7.60
2019-01-20T09:58:36.582Z,7.70
2019-01-20T10:01:04.318Z,7.90
2019-01-20T10:03:32.134Z,8.00
2019-01-20T10:05:59.716Z,8.20
2019-01-20T10:08:27.331Z,8.30
2019-01-20T10:13:22.152Z,8.50
2019-01-20T10:15:52.448Z,8.60
2019-01-20T10:18:20.234Z,8.40
2019-01-20T10:20:47.713Z,8.70
2019-01-20T10:23:15.207Z,8.70
2019-01-20T10:25:42.871Z,8.80
2019-01-20T10:28:13.139Z,8.90
2019-01-20T10:30:40.752Z,9.00
2019-01-20T10:33:11.268Z,9.10
2019-01-20T10:36:04.925Z,9.10
2019-01-20T10:38:37.382Z,9.20
2019-01-20T10:41:06.041Z,9.10
2019-01-20T10:46:04.128Z,9.10
2019-01-20T10:48:33.733Z,9.10
2019-01-20T10:51:03.871Z,9.10
2019-01-20T10:53:31.877Z,9.10
2019-01-20T10:55:59.768Z,9.20
2019-01-20T10:58:27.193Z,9.20
2019-01-20T11:00:54.534Z,9.10
2019-01-20T11:03:22.133Z,9.20
2019-01-20T11:05:49.598Z,9.10
2019-01-20T11:08:17.150Z,9.20
2019-01-20T11:10:44.531Z,9.20
2019-01-20T11:13:11.978Z,9.30
2019-01-20T11:18:06.872Z,9.30
2019-01-20T11:20:34.518Z,9.30
2019-01-20T11:23:02.032Z,9.40
2019-01-20T11:25:32.538Z,9.40
2019-01-20T11:30:28.017Z,9.40
2019-01-20T11:32:55.558Z,9.30
2019-01-20T11:35:23.104Z,9.40
2019-01-20T11:37:50.804Z,9.40
2019-01-20T11:40:18.110Z,9.30
2019-01-20T11:47:42.822Z,9.30
2019-01-20T11:50:10.765Z,9.30
2019-01-20T11:52:38.162Z,9.30
2019-01-20T12:00:01.802Z,9.30
2019-01-20T12:02:29.206Z,9.30
2019-01-20T12:05:01.039Z,9.30
2019-01-20T12:07:28.419Z,9.30
2019-01-20T12:12:23.769Z,9.20
2019-01-20T12:14:51.681Z,9.20
2019-01-20T12:19:46.663Z,9.20
2019-01-20T12:22:14.297Z,9.30
2019-01-20T12:24:41.852Z,9.30
2019-01-20T12:27:09.300Z,9.30
2019-01-20T12:29:37.745Z,9.30
2019-01-20T12:32:05.300Z,9.30
2019-01-20T12:34:32.835Z,9.30
2019-01-20T12:37:00.507Z,9.30
2019-01-20T12:39:28.437Z,9.30
2019-01-20T12:41:58.542Z,9.40
2019-01-20T12:44:31.416Z,9.40
2019-01-20T12:46:57.493Z,9.40
2019-01-20T12:49:26.241Z,9.40
2019-01-20T12:51:53.735Z,9.40
2019-01-20T12:54:21.378Z,9.40
2019-01-20T12:56:49.315Z,9.30
2019-01-20T12:59:19.994Z,9.40
2019-01-20T13:01:47.532Z,9.40
2019-01-20T13:06:42.670Z,9.30
2019-01-20T13:09:10.104Z,9.20
2019-01-20T13:11:38.068Z,9.30
2019-01-20T13:16:33.050Z,9.20
2019-01-20T13:19:00.641Z,9.10
2019-01-20T13:21:28.232Z,9.10
2019-01-20T13:24:47.136Z,9.10
2019-01-20T13:27:15.876Z,9.00
2019-01-20T13:29:43.643Z,9.00
2019-01-20T13:32:11.204Z,8.90
2019-01-20T13:37:07.366Z,8.90
2019-01-20T13:39:34.900Z,8.90
2019-01-20T13:42:02.449Z,8.80
2019-01-20T13:55:02.629Z,8.70
2019-01-20T14:02:54.572Z,8.70
2019-01-20T14:05:22.294Z,8.70
2019-01-20T14:07:50.060Z,8.70
2019-01-20T14:10:18.608Z,8.60
2019-01-20T14:15:14.571Z,8.50
2019-01-20T14:25:15.257Z,8.40
2019-01-20T14:27:43.042Z,8.40
2019-01-20T14:30:16.851Z,8.40
2019-01-20T14:32:44.371Z,8.30
2019-01-20T14:35:12.057Z,8.30
2019-01-20T14:37:39.637Z,8.30
2019-01-20T14:40:21.315Z,8.20
2019-01-20T14:43:00.914Z,8.10
2019-01-20T14:49:59.492Z,8.10
2019-01-20T14:52:30.255Z,8.10
2019-01-20T14:54:57.848Z,8.00
2019-01-20T14:57:25.266Z,7.90
2019-01-20T14:59:52.956Z,7.90
2019-01-20T15:02:20.492Z,7.90
2019-01-20T15:04:48.051Z,7.90
2019-01-20T15:07:15.613Z,7.80
2019-01-20T15:09:43.357Z,7.80
2019-01-20T15:14:38.365Z,7.80
2019-01-20T15:17:05.943Z,7.70
2019-01-20T15:19:33.452Z,7.70
2019-01-20T15:22:01.538Z,7.60
2019-01-20T15:24:40.752Z,7.60
2019-01-20T15:27:12.536Z,7.70
2019-01-20T15:29:40.335Z,7.60
2019-01-20T15:34:35.398Z,7.60
2019-01-20T15:37:03.011Z,7.60
2019-01-20T15:46:31.134Z,7.50
2019-01-20T15:48:58.905Z,7.40
2019-01-20T15:53:56.977Z,7.40
2019-01-20T15:56:26.534Z,7.40
2019-01-20T16:01:22.144Z,7.40
2019-01-20T16:03:50.638Z,7.30
2019-01-20T16:06:18.535Z,7.30
2019-01-20T16:11:15.713Z,7.30
2019-01-20T16:19:00.525Z,7.30
2019-01-20T16:21:31.863Z,7.30
2019-01-20T16:23:59.390Z,7.40
2019-01-20T16:26:27.584Z,7.30
2019-01-20T16:28:56.381Z,7.30
2019-01-20T16:31:24.485Z,7.30
2019-01-20T16:39:12.963Z,7.20
2019-01-20T16:41:40.809Z,7.40
2019-01-20T16:44:08.208Z,7.40
2019-01-20T16:46:36.118Z,7.40
2019-01-20T16:51:44.861Z,7.40
2019-01-20T16:55:01.370Z,7.40
2019-01-20T17:00:18.313Z,7.40
2019-01-20T17:02:48.053Z,7.40
2019-01-20T17:05:15.944Z,7.30
2019-01-20T17:07:46.141Z,7.30
2019-01-20T17:10:19.403Z,7.30
2019-01-20T17:12:47.174Z,7.30
2019-01-20T17:17:51.964Z,7.20
2019-01-20T17:22:48.720Z,7.20
2019-01-20T17:25:16.807Z,7.20
2019-01-20T17:27:44.379Z,7.10
2019-01-20T17:32:45.201Z,7.10
2019-01-20T17:35:14.131Z,7.10
2019-01-20T17:38:01.130Z,7.10
2019-01-20T17:45:33.071Z,6.90
2019-01-20T17:50:35.053Z,7.10
2019-01-20T17:53:03.246Z,7.10
2019-01-20T17:55:36.279Z,7.00
2019-01-20T18:05:39.450Z,7.00
2019-01-20T18:08:07.660Z,7.00
2019-01-20T18:10:35.147Z,7.00
2019-01-20T18:15:31.571Z,7.10
2019-01-20T18:17:59.171Z,7.00
2019-01-20T18:20:52.355Z,7.00
2019-01-20T18:28:14.949Z,7.00
2019-01-20T18:33:10.487Z,7.00
2019-01-20T18:35:38.071Z,7.00
2019-01-20T18:40:33.216Z,7.00
2019-01-20T18:47:56.548Z,6.90
2019-01-20T18:50:26.277Z,6.90
2019-01-20T18:52:53.914Z,6.90
2019-01-20T18:55:21.609Z,6.90
2019-01-20T18:57:49.046Z,6.90
2019-01-20T19:00:19.390Z,6.90
2019-01-20T19:02:47.106Z,6.90
2019-01-20T19:05:15.169Z,6.90
2019-01-20T19:07:42.925Z,6.90
2019-01-20T19:12:38.835Z,6.80
2019-01-20T19:15:07.775Z,6.80
2019-01-20T19:20:03.871Z,6.80
2019-01-20T19:22:31.335Z,6.80
2019-01-20T19:24:58.796Z,6.70
2019-01-20T19:27:26.220Z,6.70
2019-01-20T19:29:53.886Z,6.70
2019-01-20T19:32:21.478Z,6.70
2019-01-20T19:37:16.331Z,6.70
2019-01-20T19:39:50.349Z,6.60
2019-01-20T19:44:41.846Z,6.60
2019-01-20T19:49:38.980Z,6.70
2019-01-20T19:52:06.517Z,6.70
2019-01-20T19:57:01.434Z,6.70
2019-01-20T19:59:29.004Z,6.70
2019-01-20T20:02:05.768Z,6.70
2019-01-20T20:04:33.217Z,6.70
2019-01-20T20:07:00.743Z,6.70
2019-01-20T20:09:45.203Z,6.70
2019-01-20T20:14:41.040Z,6.70
2019-01-20T20:19:41.781Z,6.70
2019-01-20T20:24:40.603Z,6.60
2019-01-20T20:27:08.750Z,6.60
2019-01-20T20:32:03.958Z,6.60
2019-01-20T20:34:31.544Z,6.60
2019-01-20T20:37:00.413Z,6.60
2019-01-20T20:39:28.346Z,6.60
2019-01-20T20:41:56.008Z,6.60
2019-01-20T20:44:23.728Z,6.60
2019-01-20T20:46:51.575Z,6.60
2019-01-20T20:49:19.339Z,6.60
2019-01-20T20:54:14.734Z,6.60
2019-01-20T20:59:10.395Z,6.50
2019-01-20T21:04:06.955Z,6.50
2019-01-20T21:06:34.819Z,6.50
2019-01-20T21:09:06.194Z,6.50
2019-01-20T21:11:36.183Z,6.50
2019-01-20T21:14:04.056Z,6.50
2019-01-20T21:16:37.719Z,6.50
2019-01-20T21:19:01.040Z,6.50
2019-01-20T21:21:28.579Z,6.50
2019-01-20T21:23:57.209Z,6.50
2019-01-20T21:26:24.960Z,6.50
2019-01-20T21:28:52.557Z,6.40
2019-01-20T21:31:20.879Z,6.50
2019-01-20T21:33:49.909Z,6.40
2019-01-20T21:36:21.095Z,6.40
2019-01-20T21:38:49.749Z,6.50
2019-01-20T21:41:17.722Z,6.50
2019-01-20T21:43:46.116Z,6.50
2019-01-20T21:46:13.748Z,6.50
2019-01-20T21:48:42.310Z,6.50
2019-01-20T21:56:31.126Z,6.50
2019-01-20T21:58:58.672Z,6.50
2019-01-20T22:01:26.233Z,6.50
2019-01-20T22:03:54.192Z,6.50
2019-01-20T22:06:21.894Z,6.50
2019-01-20T22:08:49.427Z,6.50
2019-01-20T22:11:16.946Z,6.50
2019-01-20T22:13:45.062Z,6.50
2019-01-20T22:16:13.986Z,6.50
2019-01-20T22:18:42.627Z,6.50
2019-01-20T22:21:10.218Z,6.50
2019-01-20T22:23:37.916Z,6.50
2019-01-20T22:26:05.480Z,6.50
2019-01-20T22:28:32.964Z,6.50
2019-01-20T22:31:00.643Z,6.50
2019-01-20T22:33:28.145Z,6.50
2019-01-20T22:40:50.932Z,6.50
2019-01-20T22:43:21.343Z,6.50
2019-01-20T22:50:44.059Z,6.50
2019-01-20T22:53:11.601Z,6.50
2019-01-20T22:55:39.362Z,6.50
2019-01-20T22:58:07.231Z,6.50
2019-01-20T23:00:47.446Z,6.40
2019-01-20T23:03:15.646Z,6.40
2019-01-20T23:05:43.359Z,6.50
2019-01-20T23:13:05.969Z,6.40
2019-01-20T23:15:33.516Z,6.40
2019-01-20T23:18:00.936Z,6.40
2019-01-20T23:20:28.355Z,6.40
2019-01-20T23:22:56.303Z,6.40
2019-01-20T23:25:29.926Z,6.40
2019-01-20T23:27:57.562Z,6.40
2019-01-20T23:35:19.640Z,6.40
2019-01-20T23:37:47.161Z,6.40
2019-01-20T23:40:14.665Z,6.30
2019-01-20T23:45:09.652Z,6.30
2019-01-20T23:47:37.105Z,6.30
2019-01-20T23:50:06.040Z,6.30
2019-01-20T23:52:33.688Z,6.30
2019-01-20T23:55:04.159Z,6.30
2019-01-20T23:57:31.823Z,6.30
